Time;durP1;ratioP1;P1;durP2;ratioP2;P2;SDS_P1;SDS_P2;PMS_P1;PMS_P2;Temp;Humidity;BMP_temperature;BMP_pressure;BME280_temperature;BME280_humidity;BME280_pressure;Samples;Min_cycle;Max_cycle;Signal;HPM_P1;HPM_P2
2021/04/05 00:01:21;;;;;;;25.63;12.37;;;4.80;99.90;;;;;;5069879;28;20086;-61
2021/04/05 00:03:47;;;;;;;27.73;12.67;;;4.80;99.90;;;;;;5069880;28;20045;-61
2021/04/05 00:06:12;;;;;;;28.33;12.27;;;4.80;99.90;;;;;;5069632;28;20517;-61
2021/04/05 00:08:38;;;;;;;25.03;12.33;;;4.70;99.90;;;;;;5070109;28;20053;-61
2021/04/05 00:11:05;;;;;;;23.87;12.57;;;4.80;99.90;;;;;;5069650;28;20161;-60
2021/04/05 00:13:35;;;;;;;27.17;12.77;;;4.80;99.90;;;;;;5069800;28;20049;-60
2021/04/05 00:16:01;;;;;;;27.55;12.55;;;4.80;99.90;;;;;;5069527;28;20124;-61
2021/04/05 00:18:28;;;;;;;28.05;13.45;;;4.90;99.90;;;;;;5069147;28;20036;-62
2021/04/05 00:21:08;;;;;;;26.90;12.93;;;4.80;99.90;;;;;;5069394;28;20177;-60
2021/04/05 00:23:35;;;;;;;32.88;13.60;;;4.90;99.90;;;;;;5069537;28;20044;-60
2021/04/05 00:26:02;;;;;;;35.92;13.93;;;4.90;99.90;;;;;;5068576;28;20411;-60
2021/04/05 00:28:28;;;;;;;27.67;13.02;;;5.00;99.90;;;;;;5069528;28;20127;-62
2021/04/05 00:30:54;;;;;;;27.60;14.73;;;5.00;99.90;;;;;;5069653;28;20045;-60
2021/04/05 00:33:21;;;;;;;31.87;14.43;;;5.10;99.90;;;;;;5069098;28;20329;-60
2021/04/05 00:35:47;;;;;;;34.97;14.52;;;5.20;99.90;;;;;;5068763;28;20045;-61
2021/04/05 00:38:13;;;;;;;34.77;13.90;;;5.20;99.90;;;;;;5069399;28;20097;-60
2021/04/05 00:40:52;;;;;;;37.30;15.25;;;5.30;99.90;;;;;;5069120;28;20355;-60
2021/04/05 00:43:19;;;;;;;36.72;15.02;;;5.30;99.90;;;;;;5068568;28;20098;-61
2021/04/05 00:45:46;;;;;;;29.58;14.40;;;5.40;99.90;;;;;;5069049;28;20056;-63
2021/04/05 00:48:13;;;;;;;28.90;13.55;;;5.50;99.90;;;;;;5069117;28;20129;-60
2021/04/05 00:50:56;;;;;;;32.13;14.18;;;5.50;99.90;;;;;;5067483;28;20071;-61
2021/04/05 00:53:30;;;;;;;29.20;13.98;;;5.70;99.90;;;;;;5069145;28;20048;-60
2021/04/05 00:55:58;;;;;;;38.22;15.02;;;5.70;99.90;;;;;;5069159;28;20094;-61
2021/04/05 00:58:25;;;;;;;34.67;15.10;;;5.80;99.90;;;;;;5068526;28;20139;-60
2021/04/05 01:01:01;;;;;;;37.00;15.38;;;5.90;99.90;;;;;;5068783;28;20110;-60
2021/04/05 01:03:29;;;;;;;36.72;14.73;;;5.90;99.90;;;;;;5069071;28;20048;-61
2021/04/05 01:06:00;;;;;;;36.35;14.25;;;5.90;99.90;;;;;;5068731;28;20426;-61
2021/04/05 01:08:26;;;;;;;35.63;14.75;;;6.00;99.90;;;;;;5068743;28;20037;-60
2021/04/05 01:10:52;;;;;;;34.53;15.13;;;6.00;99.90;;;;;;5068590;28;20454;-60
2021/04/05 01:13:18;;;;;;;37.60;14.83;;;6.00;99.90;;;;;;5068094;28;20048;-61
2021/04/05 01:15:45;;;;;;;36.60;15.32;;;5.90;99.90;;;;;;5068556;28;20071;-60
2021/04/05 01:18:12;;;;;;;39.90;16.38;;;6.00;99.90;;;;;;5068634;28;20052;-61
2021/04/05 01:20:38;;;;;;;34.78;15.35;;;6.00;99.90;;;;;;5067064;28;20097;-60
2021/04/05 01:23:04;;;;;;;35.77;15.73;;;6.00;99.90;;;;;;5068137;28;20044;-61
2021/04/05 01:25:31;;;;;;;44.00;16.95;;;6.00;99.90;;;;;;5068464;28;20127;-60
2021/04/05 01:27:58;;;;;;;38.43;15.63;;;6.10;99.90;;;;;;5068330;28;20128;-61
2021/04/05 01:30:47;;;;;;;40.65;16.75;;;6.20;99.90;;;;;;5067794;28;20063;-61
2021/04/05 01:33:34;;;;;;;41.30;16.30;;;6.20;99.90;;;;;;5068445;28;20071;-60
2021/04/05 01:36:09;;;;;;;43.15;16.45;;;6.20;99.90;;;;;;5067981;28;20048;-62
2021/04/05 01:38:45;;;;;;;45.17;15.85;;;6.20;99.90;;;;;;5068403;28;20040;-61
2021/04/05 01:41:17;;;;;;;42.10;16.75;;;6.30;99.90;;;;;;5066640;28;20101;-63
2021/04/05 01:43:43;;;;;;;49.10;17.67;;;6.30;99.90;;;;;;5068204;28;20055;-61
2021/04/05 01:46:13;;;;;;;46.17;16.97;;;6.30;99.90;;;;;;5068239;28;20044;-60
2021/04/05 01:48:40;;;;;;;40.92;16.42;;;6.40;99.90;;;;;;5066897;28;20293;-62
2021/04/05 01:51:17;;;;;;;42.58;17.92;;;6.40;99.90;;;;;;5068134;28;20063;-61
2021/04/05 01:53:45;;;;;;;43.10;17.02;;;6.50;99.90;;;;;;5067979;28;20044;-61
2021/04/05 01:56:14;;;;;;;50.13;16.77;;;6.40;99.90;;;;;;5068011;28;20475;-63
2021/04/05 01:58:43;;;;;;;44.38;17.17;;;6.40;99.90;;;;;;5068187;28;20484;-60
2021/04/05 02:01:10;;;;;;;43.88;16.55;;;6.40;99.90;;;;;;5068230;28;20049;-60
2021/04/05 02:03:37;;;;;;;44.88;17.60;;;6.40;99.90;;;;;;5068106;28;20090;-60
2021/04/05 02:06:06;;;;;;;42.95;17.25;;;6.40;99.90;;;;;;5067512;28;20044;-60
2021/04/05 02:08:33;;;;;;;42.85;16.98;;;6.40;99.90;;;;;;5067786;28;20052;-61
2021/04/05 02:11:01;;;;;;;45.38;18.55;;;6.40;99.90;;;;;;5071824;28;20364;-61
2021/04/05 02:13:28;;;;;;;49.38;17.73;;;6.20;99.90;;;;;;5071612;28;20381;-61
2021/04/05 02:15:54;;;;;;;38.25;16.27;;;6.40;99.90;;;;;;5072674;28;20045;-60
2021/04/05 02:18:25;;;;;;;41.13;16.42;;;6.40;99.90;;;;;;5071815;28;20044;-62
2021/04/05 02:20:51;;;;;;;44.70;17.52;;;6.50;99.90;;;;;;5071730;28;20123;-61
2021/04/05 02:23:18;;;;;;;38.95;16.48;;;6.50;99.90;;;;;;5071489;28;20124;-61
2021/04/05 02:26:11;;;;;;;48.40;17.00;;;6.50;99.90;;;;;;5071748;28;20140;-61
2021/04/05 02:28:52;;;;;;;46.97;16.67;;;6.50;99.90;;;;;;5071464;28;20086;-60
2021/04/05 02:31:21;;;;;;;45.15;17.05;;;6.50;99.90;;;;;;5071312;28;20494;-61
2021/04/05 02:33:49;;;;;;;43.88;15.60;;;6.50;99.90;;;;;;5070029;28;20143;-61
2021/04/05 02:36:19;;;;;;;37.63;15.25;;;6.50;99.90;;;;;;5071473;28;20135;-62
2021/04/05 02:38:52;;;;;;;39.97;15.57;;;6.50;99.90;;;;;;5071741;28;20075;-62
2021/04/05 02:41:19;;;;;;;35.53;14.25;;;6.60;99.90;;;;;;5071202;28;20348;-61
2021/04/05 02:43:46;;;;;;;38.78;14.82;;;6.70;99.90;;;;;;5071262;28;20093;-62
2021/04/05 02:46:23;;;;;;;40.58;13.73;;;6.60;99.90;;;;;;5071648;28;20108;-60
2021/04/05 02:48:50;;;;;;;37.38;12.90;;;6.80;99.90;;;;;;5071113;28;20044;-63
2021/04/05 02:51:18;;;;;;;32.47;12.05;;;6.80;99.90;;;;;;5070072;28;20139;-61
2021/04/05 02:53:50;;;;;;;31.98;12.25;;;6.90;99.90;;;;;;5071608;28;20101;-61
2021/04/05 02:56:16;;;;;;;35.85;12.70;;;6.90;99.90;;;;;;5071244;28;20053;-63
2021/04/05 02:58:46;;;;;;;36.28;11.65;;;6.90;99.90;;;;;;5070865;28;20480;-60
2021/04/05 03:01:14;;;;;;;34.92;12.10;;;7.00;99.90;;;;;;5071023;28;20037;-61
2021/04/05 03:03:40;;;;;;;36.95;12.35;;;7.10;99.90;;;;;;5069867;28;20051;-60
2021/04/05 03:06:08;;;;;;;35.50;11.07;;;7.20;99.90;;;;;;5070431;28;20063;-59
2021/04/05 03:08:34;;;;;;;32.10;12.15;;;7.10;99.90;;;;;;5070907;28;20044;-62
2021/04/05 03:11:03;;;;;;;36.95;12.48;;;7.20;99.90;;;;;;5071072;28;20048;-61
2021/04/05 03:13:30;;;;;;;28.98;11.52;;;7.20;99.90;;;;;;5070908;28;20044;-61
2021/04/05 03:15:57;;;;;;;32.58;11.98;;;7.20;99.90;;;;;;5070402;28;20044;-58
2021/04/05 03:18:24;;;;;;;28.73;10.85;;;7.20;99.90;;;;;;5070745;28;20067;-61
2021/04/05 03:20:50;;;;;;;32.42;11.23;;;7.20;99.90;;;;;;5070675;28;20044;-61
2021/04/05 03:23:16;;;;;;;28.98;10.70;;;7.20;99.90;;;;;;5070419;28;20524;-62
2021/04/05 03:25:42;;;;;;;29.90;10.63;;;7.20;99.90;;;;;;5070609;28;20087;-60
2021/04/05 03:28:09;;;;;;;29.70;10.80;;;7.30;99.90;;;;;;5070566;28;20496;-61
2021/04/05 03:30:46;;;;;;;32.22;10.55;;;7.30;99.90;;;;;;5070648;28;20072;-61
2021/04/05 03:33:19;;;;;;;26.27;10.13;;;7.40;99.90;;;;;;5069076;28;20513;-61
2021/04/05 03:35:50;;;;;;;32.95;10.88;;;7.30;99.90;;;;;;5070469;28;20468;-61
2021/04/05 03:38:16;;;;;;;30.48;10.77;;;7.30;99.90;;;;;;5070357;28;20044;-61
2021/04/05 03:40:43;;;;;;;26.30;10.77;;;7.30;99.90;;;;;;5070224;28;20353;-59
2021/04/05 03:43:09;;;;;;;30.42;11.45;;;7.30;99.90;;;;;;5070175;28;20040;-61
2021/04/05 03:45:43;;;;;;;36.77;11.97;;;7.20;99.90;;;;;;5070369;28;20056;-60
2021/04/05 03:48:18;;;;;;;31.35;11.05;;;7.10;99.90;;;;;;5070043;28;20163;-60
2021/04/05 03:50:55;;;;;;;35.47;11.30;;;7.00;99.90;;;;;;5069982;28;20093;-60
2021/04/05 03:53:43;;;;;;;31.20;11.30;;;7.00;99.90;;;;;;5070251;28;20052;-62
2021/04/05 03:56:14;;;;;;;29.15;11.50;;;7.00;99.90;;;;;;5069843;28;20046;-59
2021/04/05 03:58:45;;;;;;;40.35;12.55;;;6.90;99.90;;;;;;5070292;28;20056;-60
2021/04/05 04:01:14;;;;;;;36.92;11.85;;;6.90;99.90;;;;;;5069981;28;20132;-60
2021/04/05 04:03:54;;;;;;;35.20;12.55;;;6.80;99.90;;;;;;5069888;28;20131;-60
2021/04/05 04:06:26;;;;;;;39.35;12.10;;;6.80;99.90;;;;;;5069670;28;20129;-61
2021/04/05 04:08:55;;;;;;;36.30;11.43;;;6.80;99.90;;;;;;5069539;28;20152;-60
2021/04/05 04:11:26;;;;;;;30.75;10.85;;;6.80;99.90;;;;;;5069817;28;20151;-61
2021/04/05 04:13:55;;;;;;;32.95;10.95;;;6.80;99.90;;;;;;5069384;28;20064;-61
2021/04/05 04:16:22;;;;;;;29.55;11.38;;;6.80;99.90;;;;;;5069611;28;20364;-61
2021/04/05 04:18:48;;;;;;;32.15;11.15;;;6.80;99.90;;;;;;5069422;28;20044;-60
2021/04/05 04:21:16;;;;;;;30.27;10.80;;;7.10;99.90;;;;;;5069615;28;20089;-60
2021/04/05 04:23:42;;;;;;;34.20;10.20;;;6.80;99.90;;;;;;5067902;28;20634;-60
2021/04/05 04:26:08;;;;;;;33.37;10.47;;;6.90;99.90;;;;;;5069346;28;20114;-61
2021/04/05 04:28:34;;;;;;;34.17;11.10;;;6.90;99.90;;;;;;5069498;28;20523;-60
2021/04/05 04:31:03;;;;;;;48.15;12.57;;;7.00;99.90;;;;;;5069290;28;20056;-59
2021/04/05 04:33:30;;;;;;;35.25;10.98;;;6.80;99.90;;;;;;5068912;28;20197;-58
2021/04/05 04:35:56;;;;;;;17.85;5.00;;;6.60;99.90;;;;;;5069551;28;20079;-61
2021/04/05 04:38:24;;;;;;;19.77;4.10;;;6.20;99.90;;;;;;5069493;28;20444;-59
2021/04/05 04:40:51;;;;;;;18.55;3.63;;;6.00;99.90;;;;;;5069004;28;20067;-58
2021/04/05 04:43:17;;;;;;;13.60;3.35;;;5.70;99.90;;;;;;5067709;28;20052;-60
2021/04/05 04:45:43;;;;;;;14.25;2.35;;;5.50;99.90;;;;;;5069324;28;20472;-60
2021/04/05 04:48:10;;;;;;;12.63;2.28;;;5.30;99.90;;;;;;5069230;28;20049;-61
2021/04/05 04:50:36;;;;;;;9.38;2.55;;;5.20;99.90;;;;;;5067353;28;20048;-59
2021/04/05 04:53:03;;;;;;;8.85;2.00;;;5.00;99.90;;;;;;5068733;28;20426;-59
2021/04/05 04:55:30;;;;;;;8.57;1.80;;;4.80;99.90;;;;;;5068939;28;20048;-58
2021/04/05 04:57:56;;;;;;;6.22;1.65;;;4.80;99.90;;;;;;5068179;28;20051;-59
2021/04/05 05:00:24;;;;;;;5.07;1.60;;;4.70;99.90;;;;;;5068749;28;20045;-60
2021/04/05 05:02:50;;;;;;;5.88;1.42;;;4.60;99.90;;;;;;5068400;28;20106;-60
2021/04/05 05:05:18;;;;;;;5.18;1.30;;;4.80;99.90;;;;;;5069168;28;20072;-59
2021/04/05 05:07:44;;;;;;;4.80;1.60;;;4.40;99.90;;;;;;5069308;28;20048;-59
2021/04/05 05:10:12;;;;;;;3.80;1.58;;;4.40;99.90;;;;;;5068614;28;20044;-58
2021/04/05 05:12:39;;;;;;;5.18;1.40;;;4.30;99.90;;;;;;5068833;28;20514;-59
2021/04/05 05:15:11;;;;;;;5.25;1.85;;;4.30;99.90;;;;;;5068326;28;20044;-59
2021/04/05 05:17:44;;;;;;;6.00;1.60;;;4.20;99.90;;;;;;5068392;28;20186;-60
2021/04/05 05:20:12;;;;;;;5.38;1.85;;;4.20;99.90;;;;;;5068230;28;20116;-59
2021/04/05 05:22:42;;;;;;;8.05;1.85;;;4.20;99.90;;;;;;5068097;28;20090;-60
2021/04/05 05:25:10;;;;;;;7.00;1.73;;;4.20;99.90;;;;;;5071913;28;20163;-59
2021/04/05 05:27:40;;;;;;;6.38;1.85;;;4.10;99.90;;;;;;5072416;28;20048;-61
2021/04/05 05:30:10;;;;;;;7.30;1.45;;;4.10;99.90;;;;;;5071907;28;20044;-60
2021/04/05 05:32:38;;;;;;;12.32;2.83;;;4.00;99.90;;;;;;5070671;28;20048;-59
2021/04/05 05:35:07;;;;;;;7.85;1.80;;;4.00;99.90;;;;;;5068934;28;20045;-59
2021/04/05 05:37:33;;;;;;;7.53;2.20;;;4.00;99.90;;;;;;5067280;28;20094;-59
2021/04/05 05:40:00;;;;;;;11.10;2.15;;;3.90;99.90;;;;;;5068901;28;20052;-61
2021/04/05 05:42:28;;;;;;;8.45;2.25;;;3.90;99.90;;;;;;5067434;28;20045;-59
2021/04/05 05:45:19;;;;;;;6.38;1.98;;;3.90;99.90;;;;;;5068628;28;20057;-58
2021/04/05 05:48:08;;;;;;;8.98;1.88;;;3.90;99.90;;;;;;5068785;28;20052;-58
2021/04/05 05:50:54;;;;;;;7.63;2.20;;;3.80;99.90;;;;;;5069409;28;20145;-61
2021/04/05 05:53:57;;;;;;;12.52;2.25;;;3.80;99.90;;;;;;5068920;28;20096;-61
2021/04/05 05:56:50;;;;;;;10.40;2.10;;;3.80;99.90;;;;;;5069245;28;20041;-58
2021/04/05 05:59:45;;;;;;;13.95;2.22;;;3.70;99.90;;;;;;5029363;28;20108;-59
2021/04/05 06:02:42;;;;;;;4.43;1.48;;;3.70;99.90;;;;;;5028950;28;20053;-59
2021/04/05 06:05:37;;;;;;;3.45;1.50;;;3.60;99.90;;;;;;5028501;28;20136;-59
2021/04/05 06:08:19;;;;;;;5.13;1.50;;;3.30;99.90;;;;;;4991736;28;20506;-58
2021/04/05 06:10:56;;;;;;;5.00;1.25;;;3.40;99.90;;;;;;5028340;28;20060;-59
2021/04/05 06:13:44;;;;;;;4.88;1.08;;;3.10;99.90;;;;;;5028521;28;20045;-59
2021/04/05 06:16:35;;;;;;;2.42;1.17;;;3.90;99.90;;;;;;5028195;28;20461;-59
2021/04/05 06:19:33;;;;;;;7.45;1.48;;;3.00;99.90;;;;;;5041593;28;20095;-60
2021/04/05 06:22:21;;;;;;;5.28;1.40;;;2.90;99.90;;;;;;5047125;28;20045;-59
2021/04/05 06:25:43;;;;;;;5.97;1.40;;;2.90;99.90;;;;;;5047784;28;20041;-59
2021/04/05 06:28:34;;;;;;;5.55;1.60;;;2.90;99.90;;;;;;4984840;28;20145;-59
2021/04/05 06:31:15;;;;;;;6.03;1.35;;;2.90;99.90;;;;;;4985176;28;20368;-59
2021/04/05 06:33:51;;;;;;;6.10;1.60;;;3.00;99.90;;;;;;5038673;28;20077;-59
2021/04/05 06:36:29;;;;;;;3.22;1.35;;;3.00;99.90;;;;;;5047508;28;20120;-59
2021/04/05 06:39:17;;;;;;;4.50;1.48;;;3.00;99.90;;;;;;5047714;28;20048;-58
2021/04/05 06:41:59;;;;;;;8.40;1.50;;;3.00;99.90;;;;;;5047937;28;20227;-59
2021/04/05 06:45:02;;;;;;;8.45;1.67;;;2.90;99.90;;;;;;5046824;28;20060;-60
2021/04/05 06:47:48;;;;;;;8.68;1.70;;;2.90;99.90;;;;;;5047329;28;20072;-59
2021/04/05 06:50:39;;;;;;;12.23;2.20;;;2.90;99.90;;;;;;5045778;28;20049;-59
2021/04/05 06:53:34;;;;;;;18.85;2.67;;;2.80;99.90;;;;;;5047065;28;20056;-59
2021/04/05 06:56:09;;;;;;;14.75;2.15;;;2.80;99.90;;;;;;5049161;28;20133;-59
2021/04/05 06:59:11;;;;;;;13.18;1.98;;;2.80;99.90;;;;;;5050790;28;20420;-59
2021/04/05 07:01:54;;;;;;;12.57;2.42;;;2.90;99.90;;;;;;5051040;28;20052;-61
2021/04/05 07:04:47;;;;;;;20.25;2.50;;;3.00;99.90;;;;;;5050648;28;20060;-60
2021/04/05 07:07:32;;;;;;;15.85;2.80;;;3.10;99.90;;;;;;5070904;28;20049;-59
2021/04/05 07:10:02;;;;;;;15.20;2.85;;;3.00;99.90;;;;;;5070883;28;20056;-60
2021/04/05 07:12:53;;;;;;;18.42;3.38;;;3.00;99.90;;;;;;5070264;28;20458;-59
2021/04/05 07:15:41;;;;;;;16.25;2.42;;;3.00;99.90;;;;;;5070827;28;20690;-59
2021/04/05 07:18:22;;;;;;;22.63;3.92;;;3.00;99.90;;;;;;5068842;28;20502;-60
2021/04/05 07:21:17;;;;;;;25.58;3.40;;;3.00;99.90;;;;;;5070153;28;20109;-58
2021/04/05 07:24:17;;;;;;;19.15;2.85;;;2.90;99.90;;;;;;5065603;28;20048;-59
2021/04/05 07:26:53;;;;;;;10.63;2.58;;;3.00;99.90;;;;;;5069969;28;20558;-59
2021/04/05 07:29:26;;;;;;;17.15;2.65;;;2.90;99.90;;;;;;5070588;28;20095;-58
2021/04/05 07:32:23;;;;;;;16.92;3.50;;;2.80;99.90;;;;;;5070494;28;20129;-61
2021/04/05 07:35:38;;;;;;;9.82;2.33;;;2.80;99.90;;;;;;5069559;28;20455;-58
2021/04/05 07:38:31;;;;;;;14.75;2.97;;;2.80;99.90;;;;;;5056239;28;20049;-59
2021/04/05 07:41:06;;;;;;;9.65;2.58;;;2.80;99.90;;;;;;5069930;28;20059;-59
2021/04/05 07:43:55;;;;;;;13.60;2.38;;;2.80;99.90;;;;;;5070359;28;20123;-59
2021/04/05 07:46:41;;;;;;;18.52;2.63;;;2.90;99.90;;;;;;5069956;28;20075;-59
2021/04/05 07:49:18;;;;;;;11.27;2.20;;;2.80;99.90;;;;;;5069550;28;20182;-58
2021/04/05 07:51:52;;;;;;;13.38;2.47;;;2.80;99.90;;;;;;5070201;28;20060;-58
2021/04/05 07:54:21;;;;;;;13.77;3.08;;;2.80;99.90;;;;;;5069501;28;20036;-57
2021/04/05 07:56:49;;;;;;;13.68;2.28;;;2.90;99.90;;;;;;5070308;28;20478;-58
2021/04/05 07:59:24;;;;;;;15.82;2.53;;;2.90;99.90;;;;;;5070176;28;20052;-58
2021/04/05 08:02:01;;;;;;;7.55;1.20;;;2.30;99.90;;;;;;5070401;28;20040;-56
2021/04/05 08:04:46;;;;;;;6.10;1.70;;;1.90;99.90;;;;;;5069922;28;20128;-57
2021/04/05 08:07:31;;;;;;;;;;;1.80;99.90;;;;;;5069896;28;20044;-58
2021/04/05 08:10:13;;;;;;;5.60;1.60;;;1.90;99.90;;;;;;5070361;28;19920;-58
2021/04/05 08:13:02;;;;;;;4.05;1.33;;;2.00;99.90;;;;;;5069994;28;20392;-58
2021/04/05 08:15:46;;;;;;;9.00;3.05;;;2.10;99.90;;;;;;5069999;28;20128;-59
2021/04/05 08:18:19;;;;;;;7.38;1.80;;;2.30;99.90;;;;;;5069902;28;20052;-58
2021/04/05 08:20:53;;;;;;;6.30;1.60;;;2.40;99.90;;;;;;5049239;28;20482;-58
2021/04/05 08:23:25;;;;;;;;;;;2.50;99.90;;;;;;5051380;28;20099;-58
2021/04/05 08:28:32;;;;;;;5.07;1.60;;;2.20;99.90;;;;;;5047808;28;20045;-57
2021/04/05 08:31:35;;;;;;;3.90;1.55;;;2.10;99.90;;;;;;5048403;28;20049;-58
2021/04/05 08:34:31;;;;;;;5.35;1.10;;;2.00;99.90;;;;;;5049429;28;20068;-57
2021/04/05 08:37:21;;;;;;;6.85;1.90;;;1.80;99.90;;;;;;5047782;28;20457;-56
2021/04/05 08:39:50;;;;;;;6.47;1.83;;;1.50;99.90;;;;;;5049165;28;20590;-58
2021/04/05 08:43:03;;;;;;;6.45;1.50;;;1.50;99.90;;;;;;5048454;28;20049;-58
2021/04/05 08:45:59;;;;;;;8.98;1.75;;;1.50;99.90;;;;;;5034785;28;20083;-57
2021/04/05 08:48:29;;;;;;;10.95;1.85;;;1.60;99.90;;;;;;5064323;28;20496;-57
2021/04/05 08:51:00;;;;;;;8.32;2.10;;;1.70;99.90;;;;;;5069111;28;20170;-57
2021/04/05 08:53:30;;;;;;;16.23;2.30;;;1.60;99.90;;;;;;5069511;28;20051;-65
2021/04/05 08:56:00;;;;;;;11.52;2.00;;;1.50;99.90;;;;;;5068903;28;20067;-58
2021/04/05 08:58:39;;;;;;;13.73;2.75;;;1.50;99.90;;;;;;5068774;28;20110;-58
2021/04/05 09:01:11;;;;;;;13.45;3.10;;;1.70;99.90;;;;;;5068950;28;20079;-59
2021/04/05 09:03:41;;;;;;;15.95;2.47;;;1.80;99.90;;;;;;5069124;28;20055;-59
2021/04/05 09:06:14;;;;;;;9.27;2.08;;;1.80;99.90;;;;;;5068429;28;20044;-59
2021/04/05 09:08:43;;;;;;;10.73;2.28;;;1.90;99.90;;;;;;5072349;28;20046;-58
2021/04/05 09:11:11;;;;;;;14.35;2.20;;;1.90;99.90;;;;;;5074403;28;20128;-57
2021/04/05 09:13:49;;;;;;;13.98;2.58;;;2.00;99.90;;;;;;5074263;28;20218;-61
2021/04/05 09:16:36;;;;;;;11.85;2.17;;;2.20;99.90;;;;;;5066705;28;20113;-58
2021/04/05 09:19:40;;;;;;;15.20;2.60;;;2.30;99.90;;;;;;5068609;28;20048;-57
2021/04/05 09:22:46;;;;;;;17.90;2.20;;;2.30;99.90;;;;;;5069231;28;20110;-56
2021/04/05 09:25:34;;;;;;;19.52;2.70;;;2.30;99.90;;;;;;5068639;28;20391;-57
2021/04/05 09:28:25;;;;;;;17.27;3.50;;;2.40;99.90;;;;;;5069190;28;20473;-57
2021/04/05 09:31:28;;;;;;;17.08;2.90;;;2.60;99.90;;;;;;5048704;28;20124;-57
2021/04/05 09:34:01;;;;;;;12.90;3.00;;;2.70;99.90;;;;;;5048627;28;20048;-57
2021/04/05 09:36:48;;;;;;;14.02;3.13;;;2.70;99.90;;;;;;5048850;28;20056;-57
2021/04/05 09:39:53;;;;;;;17.52;2.47;;;2.60;99.90;;;;;;5048907;28;20115;-56
2021/04/05 09:42:40;;;;;;;15.95;2.85;;;2.70;99.90;;;;;;5049679;28;20086;-57
2021/04/05 09:45:41;;;;;;;15.50;3.78;;;2.60;99.90;;;;;;5048442;28;20049;-57
2021/04/05 09:48:22;;;;;;;15.82;3.22;;;2.70;99.90;;;;;;4997258;28;20079;-59
2021/04/05 09:51:11;;;;;;;15.50;3.20;;;2.70;99.90;;;;;;5048254;28;20067;-60
2021/04/05 09:53:47;;;;;;;13.98;2.80;;;2.70;99.90;;;;;;5047787;28;20163;-60
2021/04/05 09:56:21;;;;;;;12.63;2.72;;;2.70;99.90;;;;;;5047507;28;20049;-59
2021/04/05 09:58:55;;;;;;;16.13;3.85;;;2.70;99.90;;;;;;5046814;28;20041;-61
2021/04/05 10:01:23;;;;;;;14.95;2.80;;;2.90;99.90;;;;;;5047462;28;20044;-60
2021/04/05 10:04:03;;;;;;;18.42;3.22;;;3.00;99.90;;;;;;5047592;28;20392;-61
2021/04/05 10:06:33;;;;;;;25.70;4.00;;;3.10;99.90;;;;;;5047419;28;20049;-61
2021/04/05 10:09:01;;;;;;;12.38;3.42;;;3.40;99.90;;;;;;5058171;28;20509;-59
2021/04/05 10:11:29;;;;;;;8.30;2.55;;;3.40;99.90;;;;;;5068082;28;20119;-60
2021/04/05 10:14:06;;;;;;;10.82;2.15;;;3.40;99.90;;;;;;5067905;28;20409;-60
2021/04/05 10:16:35;;;;;;;7.03;1.58;;;3.40;99.90;;;;;;5066393;28;20158;-60
2021/04/05 10:19:11;;;;;;;8.25;1.85;;;3.20;99.90;;;;;;5068111;28;20052;-60
2021/04/05 10:22:04;;;;;;;5.88;1.70;;;3.00;99.90;;;;;;5068754;28;20052;-61
2021/04/05 10:24:33;;;;;;;4.20;1.85;;;2.90;99.90;;;;;;5068881;28;20428;-58
2021/04/05 10:27:05;;;;;;;6.70;2.00;;;2.80;99.90;;;;;;5068273;28;20064;-58
2021/04/05 10:29:34;;;;;;;6.55;2.10;;;2.80;99.90;;;;;;5067828;28;20067;-58
2021/04/05 10:32:02;;;;;;;8.00;2.20;;;2.80;99.90;;;;;;5071995;28;20456;-56
2021/04/05 10:34:29;;;;;;;11.43;2.40;;;2.90;99.90;;;;;;5072351;28;20052;-57
2021/04/05 10:37:00;;;;;;;7.20;2.40;;;3.10;99.90;;;;;;5072479;28;20697;-57
2021/04/05 10:39:26;;;;;;;15.65;2.50;;;3.30;99.90;;;;;;5072401;28;20409;-57
2021/04/05 10:42:13;;;;;;;13.77;2.50;;;3.40;99.90;;;;;;5070613;28;20132;-59
2021/04/05 10:44:43;;;;;;;10.32;1.90;;;3.90;99.90;;;;;;5071213;28;20048;-60
2021/04/05 10:47:19;;;;;;;9.35;1.83;;;4.20;99.90;;;;;;5071260;28;20059;-59
2021/04/05 10:49:47;;;;;;;7.63;1.48;;;4.10;99.90;;;;;;5071040;28;20052;-59
2021/04/05 10:52:21;;;;;;;4.18;1.33;;;4.10;99.90;;;;;;5071176;28;20436;-59
2021/04/05 10:54:49;;;;;;;;;;;3.90;99.90;;;;;;5071658;28;20384;-60
2021/04/05 10:57:34;;;;;;;5.10;1.33;;;3.60;99.90;;;;;;5071235;28;20003;-59
2021/04/05 11:00:07;;;;;;;4.10;1.27;;;3.60;99.90;;;;;;5069426;28;20068;-59
2021/04/05 11:02:39;;;;;;;3.95;1.20;;;3.70;99.90;;;;;;5071079;28;20048;-58
2021/04/05 11:05:13;;;;;;;4.75;1.40;;;3.90;99.90;;;;;;5070769;28;20064;-60
2021/04/05 11:07:40;;;;;;;5.30;1.30;;;4.10;99.90;;;;;;5070924;28;20045;-57
2021/04/05 11:10:10;;;;;;;5.65;1.70;;;4.00;99.90;;;;;;5070760;28;20164;-58
2021/04/05 11:12:42;;;;;;;3.83;1.70;;;4.30;99.90;;;;;;5069310;28;20040;-60
2021/04/05 11:15:14;;;;;;;7.32;2.00;;;4.30;98.80;;;;;;5070704;28;20036;-61
2021/04/05 11:17:46;;;;;;;4.85;1.38;;;4.50;99.90;;;;;;5071194;28;20053;-59
2021/04/05 11:20:14;;;;;;;2.97;1.23;;;4.30;93.90;;;;;;5060037;28;20072;-61
2021/04/05 11:22:41;;;;;;;3.97;0.80;;;4.40;96.00;;;;;;5050526;28;20132;-61
2021/04/05 11:25:12;;;;;;;5.28;1.60;;;4.50;96.30;;;;;;5058062;28;20095;-62
2021/04/05 11:27:46;;;;;;;5.57;2.40;;;4.30;94.80;;;;;;5049980;28;20049;-62
2021/04/05 11:30:23;;;;;;;12.50;2.00;;;4.00;95.80;;;;;;5054776;28;20458;-62
2021/04/05 11:32:51;;;;;;;7.65;2.13;;;3.30;98.40;;;;;;5053187;28;20100;-58
2021/04/05 11:35:20;;;;;;;7.10;2.08;;;3.00;99.90;;;;;;5051770;28;20045;-58
2021/04/05 11:37:49;;;;;;;7.60;2.95;;;2.80;99.90;;;;;;5031504;28;20045;-58
2021/04/05 11:40:19;;;;;;;8.15;3.67;;;3.00;99.90;;;;;;5032171;28;20088;-59
2021/04/05 11:42:48;;;;;;;8.05;2.08;;;3.20;99.90;;;;;;5031402;28;20453;-62
2021/04/05 11:45:20;;;;;;;9.30;2.17;;;3.70;99.90;;;;;;5046245;28;20056;-61
2021/04/05 11:47:51;;;;;;;9.23;1.75;;;4.00;99.90;;;;;;5048089;28;20671;-60
2021/04/05 11:50:23;;;;;;;9.25;2.40;;;4.00;99.90;;;;;;5049869;28;20412;-59
2021/04/05 11:53:04;;;;;;;6.25;1.48;;;3.70;97.60;;;;;;5050257;28;20041;-62
2021/04/05 11:55:33;;;;;;;5.68;1.52;;;3.60;99.30;;;;;;5048803;28;20819;-59
2021/04/05 11:58:14;;;;;;;4.57;1.13;;;3.90;96.50;;;;;;5049930;28;20109;-60
2021/04/05 12:00:53;;;;;;;6.15;2.83;;;3.70;99.60;;;;;;5049620;28;20080;-60
2021/04/05 12:03:33;;;;;;;6.47;1.70;;;3.80;98.40;;;;;;5048276;28;20102;-60
2021/04/05 12:06:14;;;;;;;3.33;1.63;;;3.80;99.40;;;;;;5048767;28;20135;-61
2021/04/05 12:08:54;;;;;;;5.80;1.30;;;3.80;98.00;;;;;;5048662;28;20503;-61
2021/04/05 12:11:23;;;;;;;9.75;2.25;;;3.20;99.90;;;;;;5048525;28;20138;-61
2021/04/05 12:13:56;;;;;;;9.85;1.92;;;2.80;99.90;;;;;;5049439;28;20051;-61
2021/04/05 12:16:27;;;;;;;9.57;2.33;;;2.70;99.90;;;;;;5047855;28;20131;-60
2021/04/05 12:18:54;;;;;;;11.30;2.95;;;2.90;99.90;;;;;;5047752;28;20049;-61
2021/04/05 12:21:29;;;;;;;6.68;1.73;;;3.10;99.90;;;;;;5048053;28;20186;-61
2021/04/05 12:23:56;;;;;;;;;;;3.30;99.90;;;;;;5047675;28;20053;-61
2021/04/05 12:26:27;;;;;;;5.30;1.80;;;3.50;99.90;;;;;;5048083;28;19925;-61
2021/04/05 12:29:00;;;;;;;10.82;1.90;;;3.70;99.90;;;;;;5048698;28;20118;-62
2021/04/05 12:31:26;;;;;;;7.53;1.73;;;4.00;99.90;;;;;;5048515;28;20178;-63
2021/04/05 12:34:06;;;;;;;7.57;2.00;;;4.30;99.90;;;;;;5047896;28;20131;-61
2021/04/05 12:36:35;;;;;;;8.90;2.47;;;4.40;99.30;;;;;;5049026;28;20295;-62
2021/04/05 12:39:03;;;;;;;10.05;3.78;;;4.40;97.20;;;;;;5048651;28;20117;-62
2021/04/05 12:41:41;;;;;;;9.05;1.38;;;4.40;98.40;;;;;;5048302;28;20049;-62
2021/04/05 12:44:12;;;;;;;9.55;2.40;;;4.20;98.90;;;;;;5049064;28;20519;-63
2021/04/05 12:46:40;;;;;;;12.23;2.08;;;4.10;99.90;;;;;;5049631;28;20529;-64
2021/04/05 12:49:08;;;;;;;12.55;2.42;;;4.10;99.90;;;;;;5048495;28;20080;-61
2021/04/05 12:51:35;;;;;;;6.60;1.90;;;4.00;97.60;;;;;;5048812;28;20314;-60
2021/04/05 12:54:05;;;;;;;8.73;1.80;;;4.10;95.80;;;;;;5049126;28;20103;-58
2021/04/05 12:56:33;;;;;;;7.97;2.95;;;4.40;98.30;;;;;;5051174;28;20132;-62
2021/04/05 12:59:00;;;;;;;8.50;2.40;;;4.70;93.00;;;;;;5049055;28;20068;-61
2021/04/05 13:01:34;;;;;;;8.48;1.42;;;4.50;94.10;;;;;;5048415;28;20041;-61
2021/04/05 13:04:02;;;;;;;;;;;3.70;99.90;;;;;;5048478;28;20056;-60
2021/04/05 13:06:42;;;;;;;6.85;1.50;;;2.90;99.90;;;;;;5048348;28;19931;-60
2021/04/05 13:09:22;;;;;;;6.22;1.27;;;2.50;99.90;;;;;;5048364;28;20048;-61
2021/04/05 13:11:56;;;;;;;3.80;1.33;;;2.40;99.90;;;;;;5048575;28;20045;-61
2021/04/05 13:14:34;;;;;;;;;;;2.60;99.90;;;;;;5049164;28;20111;-61
2021/04/05 13:17:14;;;;;;;6.35;1.42;;;2.50;99.90;;;;;;5048355;28;19956;-62
2021/04/05 13:19:53;;;;;;;5.00;1.13;;;2.20;99.90;;;;;;5048057;28;20400;-61
2021/04/05 13:22:23;;;;;;;2.70;1.10;;;1.90;99.90;;;;;;5047883;28;20041;-62
2021/04/05 13:25:26;;;;;;;6.82;1.25;;;2.00;99.90;;;;;;5047911;28;20079;-62
2021/04/05 13:27:53;;;;;;;7.35;1.27;;;2.10;99.90;;;;;;5028781;28;20469;-61
2021/04/05 13:30:20;;;;;;;3.35;1.63;;;2.20;99.90;;;;;;5048292;28;20122;-57